Time;durP1;ratioP1;P1;durP2;ratioP2;P2;SDS_P1;SDS_P2;PMS_P1;PMS_P2;Temp;Humidity;BMP_temperature;BMP_pressure;BME280_temperature;BME280_humidity;BME280_pressure;Samples;Min_cycle;Max_cycle;Signal;HPM_P1;HPM_P2
2021/05/21 00:00:54;;;;;;;1.33;1.20;;;;;;;10.38;76.33;93088.41;5031917;28;20025;-40
2021/05/21 00:03:20;;;;;;;2.28;1.60;;;;;;;10.34;76.75;93088.06;5032025;28;20029;-40
2021/05/21 00:05:45;;;;;;;1.83;1.73;;;;;;;10.45;76.86;93082.16;5031717;28;20017;-41
2021/05/21 00:08:11;;;;;;;1.30;1.20;;;;;;;10.51;76.44;93074.41;5041303;28;20036;-43
2021/05/21 00:10:37;;;;;;;1.15;1.08;;;;;;;10.54;75.16;93073.28;5051403;28;20028;-41
2021/05/21 00:13:02;;;;;;;1.23;1.13;;;;;;;10.48;75.11;93078.25;5051473;28;20037;-39
2021/05/21 00:15:28;;;;;;;1.10;0.98;;;;;;;10.67;75.29;93083.38;5051169;28;20529;-40
2021/05/21 00:17:53;;;;;;;1.35;1.20;;;;;;;10.75;74.80;93078.53;5051095;28;20132;-40
2021/05/21 00:20:18;;;;;;;0.90;0.90;;;;;;;10.85;74.02;93086.97;5051109;28;20054;-40
2021/05/21 00:22:44;;;;;;;1.60;1.50;;;;;;;10.71;74.44;93094.00;5050804;28;20052;-41
2021/05/21 00:25:10;;;;;;;1.48;1.30;;;;;;;10.71;74.62;93100.28;5050356;28;20036;-41
2021/05/21 00:27:35;;;;;;;1.48;1.38;;;;;;;10.66;74.85;93101.22;5033543;28;20025;-43
2021/05/21 00:30:01;;;;;;;1.50;1.30;;;;;;;10.49;74.96;93104.59;5050878;28;20021;-44
2021/05/21 00:32:26;;;;;;;1.27;1.20;;;;;;;10.35;75.88;93105.38;5051098;28;20100;-44
2021/05/21 00:34:52;;;;;;;2.70;1.40;;;;;;;10.21;77.38;93107.59;5045691;28;20030;-43
2021/05/21 00:37:17;;;;;;;1.08;1.05;;;;;;;10.24;76.53;93098.22;5031140;28;20025;-44
2021/05/21 00:39:43;;;;;;;1.25;1.13;;;;;;;10.12;77.29;93105.38;5030309;28;20025;-40
2021/05/21 00:42:08;;;;;;;1.70;1.30;;;;;;;10.03;78.23;93111.44;5030616;28;20029;-41
2021/05/21 00:44:34;;;;;;;1.00;0.93;;;;;;;10.07;77.53;93117.31;5030780;28;20032;-41
2021/05/21 00:46:59;;;;;;;1.05;1.05;;;;;;;9.94;78.17;93121.00;5030543;28;20083;-44
2021/05/21 00:49:25;;;;;;;1.38;1.27;;;;;;;9.94;78.47;93123.03;5030937;28;20103;-43
2021/05/21 00:51:50;;;;;;;1.02;1.00;;;;;;;9.91;78.49;93124.88;5030310;28;20022;-45
2021/05/21 00:54:17;;;;;;;1.13;1.08;;;;;;;10.03;77.31;93122.47;5030816;28;20021;-43
2021/05/21 00:56:43;;;;;;;1.20;1.10;;;;;;;9.85;77.83;93126.34;5030576;28;20623;-43
2021/05/21 00:59:09;;;;;;;0.70;0.70;;;;;;;9.69;78.46;93127.63;5030706;28;20049;-41
2021/05/21 01:01:35;;;;;;;0.80;0.80;;;;;;;9.69;78.55;93119.38;5029966;28;20406;-40
2021/05/21 01:04:00;;;;;;;0.77;0.77;;;;;;;9.82;78.51;93127.44;5015080;28;20056;-42
2021/05/21 01:06:26;;;;;;;0.93;0.88;;;;;;;9.95;78.80;93132.78;5030068;28;20502;-41
2021/05/21 01:08:51;;;;;;;1.60;1.50;;;;;;;10.03;79.13;93130.03;5029984;28;20025;-41
2021/05/21 01:11:17;;;;;;;1.45;1.35;;;;;;;10.01;78.16;93125.06;5010074;28;20017;-41
2021/05/21 01:13:42;;;;;;;1.50;1.20;;;;;;;9.99;78.08;93111.09;5029899;28;20028;-41
2021/05/21 01:16:08;;;;;;;1.70;1.60;;;;;;;10.06;78.70;93121.38;5029667;28;20171;-42
2021/05/21 01:18:34;;;;;;;1.50;1.40;;;;;;;10.21;78.28;93121.38;5029086;28;20033;-43
2021/05/21 01:20:59;;;;;;;1.40;1.27;;;;;;;10.13;78.51;93123.44;5029911;28;20036;-42
2021/05/21 01:23:25;;;;;;;2.80;1.38;;;;;;;10.01;78.35;93119.53;5030152;28;20021;-42
2021/05/21 01:25:51;;;;;;;0.93;0.88;;;;;;;10.00;78.84;93129.09;5030223;28;20021;-41
2021/05/21 01:28:18;;;;;;;1.48;1.33;;;;;;;10.02;78.21;93118.25;5029880;28;20036;-46
2021/05/21 01:30:44;;;;;;;1.85;1.55;;;;;;;10.13;78.22;93128.19;5029406;28;20038;-41
2021/05/21 01:33:11;;;;;;;1.00;1.00;;;;;;;10.20;77.44;93130.94;5029950;28;20041;-42
2021/05/21 01:35:37;;;;;;;1.60;1.10;;;;;;;10.25;77.07;93132.78;5029932;28;20087;-41
2021/05/21 01:38:03;;;;;;;3.50;1.02;;;;;;;10.22;76.72;93127.66;5029989;28;20036;-45
2021/05/21 01:40:29;;;;;;;1.58;1.48;;;;;;;10.10;77.42;93134.78;5030090;28;20427;-43
2021/05/21 01:42:55;;;;;;;1.50;1.40;;;;;;;10.05;77.69;93135.72;5029990;28;20041;-41
2021/05/21 01:45:21;;;;;;;1.35;1.25;;;;;;;10.16;77.42;93138.13;5029802;28;20033;-41
2021/05/21 01:47:47;;;;;;;1.08;1.00;;;;;;;10.13;77.06;93130.97;5012136;28;20033;-40
2021/05/21 01:50:13;;;;;;;1.92;1.73;;;;;;;9.99;77.05;93116.59;5029619;28;20080;-41
2021/05/21 01:52:39;;;;;;;1.85;1.75;;;;;;;10.20;76.43;93125.41;5012092;28;20060;-42
2021/05/21 01:55:04;;;;;;;1.58;1.30;;;;;;;10.22;75.87;93128.34;5029822;28;20033;-41
2021/05/21 01:57:30;;;;;;;1.70;1.55;;;;;;;10.12;77.36;93123.97;5029616;28;20029;-41
2021/05/21 01:59:55;;;;;;;16.33;1.77;;;;;;;10.18;77.15;93130.03;5033474;28;20112;-42
2021/05/21 02:02:20;;;;;;;1.88;1.67;;;;;;;10.13;77.77;93134.47;5049194;28;20032;-44
2021/05/21 02:04:46;;;;;;;1.50;1.40;;;;;;;9.97;77.13;93126.69;5049150;28;20056;-44
2021/05/21 02:07:14;;;;;;;2.83;2.22;;;;;;;9.79;78.55;93120.28;5046700;28;20085;-42
2021/05/21 02:09:48;;;;;;;2.25;1.60;;;;;;;9.81;79.37;93123.25;5029468;28;20033;-41
2021/05/21 02:12:13;;;;;;;2.05;1.85;;;;;;;9.72;79.87;93127.25;5029799;28;20399;-40
2021/05/21 02:14:39;;;;;;;2.30;2.10;;;;;;;9.84;79.72;93124.88;5029413;28;20136;-43
2021/05/21 02:17:05;;;;;;;2.03;1.83;;;;;;;10.01;78.91;93133.31;5029615;28;20037;-42
2021/05/21 02:19:31;;;;;;;1.77;1.67;;;;;;;10.04;78.55;93132.22;5029537;28;20037;-40
2021/05/21 02:21:56;;;;;;;1.95;1.75;;;;;;;10.03;78.97;93130.75;5029644;28;20049;-40
2021/05/21 02:24:22;;;;;;;2.78;1.90;;;;;;;10.04;78.92;93137.00;5029415;28;20509;-42
2021/05/21 02:26:47;;;;;;;1.05;0.95;;;;;;;10.07;78.20;93139.38;5029375;28;20112;-39
2021/05/21 02:29:13;;;;;;;2.03;1.83;;;;;;;10.09;78.79;93142.31;5029411;28;20065;-40
2021/05/21 02:31:38;;;;;;;2.65;1.67;;;;;;;10.08;78.68;93140.88;5029244;28;20083;-40
2021/05/21 02:34:03;;;;;;;1.60;1.50;;;;;;;10.02;78.89;93137.56;5029451;28;20095;-42
2021/05/21 02:36:29;;;;;;;5.07;1.65;;;;;;;10.04;79.11;93134.25;5029480;28;20099;-40
2021/05/21 02:38:54;;;;;;;1.92;1.33;;;;;;;10.06;78.90;93126.16;5029190;28;20545;-40
2021/05/21 02:41:20;;;;;;;3.25;1.88;;;;;;;10.07;78.87;93124.88;5029276;28;20029;-41
2021/05/21 02:43:45;;;;;;;1.77;1.42;;;;;;;10.03;78.52;93136.25;5029318;28;20479;-40
2021/05/21 02:46:11;;;;;;;1.25;1.08;;;;;;;9.97;79.63;93132.97;5029003;28;20091;-41
2021/05/21 02:48:36;;;;;;;2.15;1.55;;;;;;;10.05;78.84;93138.50;5029373;28;20075;-41
2021/05/21 02:51:02;;;;;;;1.83;1.65;;;;;;;10.14;78.84;93143.44;5029233;28;20415;-41
2021/05/21 02:53:27;;;;;;;3.13;1.88;;;;;;;10.13;79.19;93137.22;5029423;28;20025;-41
2021/05/21 02:55:53;;;;;;;1.38;1.27;;;;;;;9.97;79.41;93144.00;5030390;28;20029;-42
2021/05/21 02:58:19;;;;;;;1.63;1.27;;;;;;;10.09;79.24;93136.81;5049211;28;20029;-43
2021/05/21 03:00:45;;;;;;;1.40;1.30;;;;;;;10.03;79.43;93144.53;5049044;28;20131;-40
2021/05/21 03:03:10;;;;;;;1.48;1.27;;;;;;;9.87;79.48;93130.00;5049079;28;20654;-40
2021/05/21 03:05:36;;;;;;;1.38;1.27;;;;;;;10.04;79.05;93148.78;5048782;28;20479;-43
2021/05/21 03:08:02;;;;;;;4.20;2.17;;;;;;;9.96;78.93;93139.03;5038906;28;20026;-43
2021/05/21 03:10:28;;;;;;;1.40;1.30;;;;;;;9.88;79.71;93145.28;5018297;28;20050;-43
2021/05/21 03:12:54;;;;;;;1.42;1.33;;;;;;;9.90;79.60;93144.72;5027632;28;20789;-42
2021/05/21 03:15:21;;;;;;;1.77;1.52;;;;;;;9.88;79.08;93142.53;5030825;28;20071;-42
2021/05/21 03:17:47;;;;;;;1.98;1.85;;;;;;;9.99;78.72;93140.69;5032582;28;20106;-41
2021/05/21 03:20:14;;;;;;;2.17;1.90;;;;;;;10.01;79.11;93149.13;5052240;28;20565;-42
2021/05/21 03:22:39;;;;;;;1.42;1.30;;;;;;;10.02;79.08;93151.34;5052682;28;20048;-41
2021/05/21 03:25:05;;;;;;;2.30;1.77;;;;;;;10.11;79.32;93150.84;5052151;28;20494;-41
2021/05/21 03:27:31;;;;;;;2.03;1.50;;;;;;;9.89;79.24;93152.28;5052547;28;20025;-41
2021/05/21 03:29:58;;;;;;;4.38;2.58;;;;;;;9.96;79.68;93145.28;5050466;28;20025;-43
2021/05/21 03:32:24;;;;;;;1.45;1.35;;;;;;;10.08;78.62;93151.91;5032162;28;20026;-42
2021/05/21 03:34:50;;;;;;;2.13;1.80;;;;;;;10.10;78.36;93154.84;5032209;28;20082;-43
2021/05/21 03:37:15;;;;;;;1.98;1.25;;;;;;;10.02;78.48;93153.38;5031230;28;20498;-41
2021/05/21 03:39:41;;;;;;;4.15;2.17;;;;;;;10.16;78.17;93163.69;5046090;28;20024;-42
2021/05/21 03:42:07;;;;;;;3.40;1.95;;;;;;;10.13;78.94;93164.81;5050584;28;20033;-42
2021/05/21 03:44:32;;;;;;;2.05;1.92;;;;;;;10.16;78.83;93163.69;5050733;28;20658;-42
2021/05/21 03:47:01;;;;;;;2.28;1.67;;;;;;;10.11;78.91;93181.19;5050277;28;20418;-41
2021/05/21 03:49:27;;;;;;;1.52;1.35;;;;;;;10.14;79.03;93174.53;5050284;28;20455;-42
2021/05/21 03:51:53;;;;;;;1.80;1.33;;;;;;;10.18;79.17;93183.16;5050430;28;20063;-41
2021/05/21 03:54:19;;;;;;;1.45;1.15;;;;;;;10.28;78.57;93181.34;5050605;28;20140;-42
2021/05/21 03:56:44;;;;;;;1.30;1.25;;;;;;;10.31;78.25;93182.28;5052140;28;20112;-42
2021/05/21 03:59:10;;;;;;;2.38;1.55;;;;;;;10.29;77.86;93182.81;5051637;28;20032;-41
2021/05/21 04:01:35;;;;;;;2.35;1.70;;;;;;;10.31;78.65;93185.75;5014066;28;20131;-41
2021/05/21 04:04:01;;;;;;;2.35;1.83;;;;;;;10.31;78.40;93185.03;5031620;28;20048;-43
2021/05/21 04:06:27;;;;;;;2.13;1.85;;;;;;;10.34;78.57;93200.47;5031417;28;20483;-41
2021/05/21 04:08:52;;;;;;;2.28;1.88;;;;;;;10.36;78.46;93201.38;5047497;28;20033;-40
2021/05/21 04:11:18;;;;;;;3.10;1.95;;;;;;;10.34;78.41;93203.97;5051757;28;20028;-41
2021/05/21 04:13:43;;;;;;;3.17;2.13;;;;;;;10.40;78.78;93203.75;5051277;28;20029;-43
2021/05/21 04:16:09;;;;;;;1.70;1.52;;;;;;;10.38;78.79;93200.81;5051123;28;20052;-41
2021/05/21 04:18:34;;;;;;;2.90;1.92;;;;;;;10.42;77.67;93192.91;5051527;28;20039;-42
2021/05/21 04:20:59;;;;;;;2.13;1.75;;;;;;;10.38;78.42;93201.56;5051210;28;20509;-42
2021/05/21 04:23:25;;;;;;;3.08;1.98;;;;;;;10.42;78.57;93201.19;5051326;28;20028;-44
2021/05/21 04:25:51;;;;;;;3.60;2.20;;;;;;;10.37;78.64;93204.88;5050498;28;20036;-43
2021/05/21 04:28:16;;;;;;;1.67;1.42;;;;;;;10.42;78.78;93210.19;5051292;28;20082;-41
2021/05/21 04:30:42;;;;;;;2.25;1.80;;;;;;;10.46;78.88;93218.84;5051267;28;20102;-41
2021/05/21 04:33:07;;;;;;;1.55;1.35;;;;;;;10.48;78.87;93210.03;5051192;28;20032;-42
2021/05/21 04:35:33;;;;;;;2.17;1.73;;;;;;;10.38;79.39;93220.13;5051271;28;20435;-42
2021/05/21 04:37:58;;;;;;;2.72;2.13;;;;;;;10.41;79.65;93219.03;5039941;28;20040;-41
2021/05/21 04:40:24;;;;;;;1.92;1.80;;;;;;;10.41;78.67;93230.81;5030872;28;20033;-39
2021/05/21 04:42:49;;;;;;;1.67;1.42;;;;;;;10.52;78.49;93238.72;5030937;28;20056;-40
2021/05/21 04:45:15;;;;;;;1.80;1.70;;;;;;;10.46;78.31;93235.41;5031085;28;20398;-42
2021/05/21 04:47:40;;;;;;;2.97;1.95;;;;;;;10.60;78.41;93247.00;5030843;28;20135;-43
2021/05/21 04:50:06;;;;;;;8.05;2.60;;;;;;;10.73;78.78;93254.34;5029990;28;20025;-42
2021/05/21 04:52:32;;;;;;;1.63;1.40;;;;;;;10.75;77.58;93243.47;5035493;28;20021;-42
2021/05/21 04:54:57;;;;;;;1.85;1.58;;;;;;;10.70;77.98;93253.41;5050720;28;20086;-42
2021/05/21 04:57:23;;;;;;;2.75;1.95;;;;;;;10.75;78.15;93263.53;5050522;28;20098;-43
2021/05/21 04:59:48;;;;;;;3.95;2.30;;;;;;;10.84;78.57;93267.75;5050844;28;20033;-41
2021/05/21 05:02:13;;;;;;;3.05;2.30;;;;;;;10.86;77.90;93270.69;5050561;28;20422;-44
2021/05/21 05:04:39;;;;;;;13.50;6.97;;;;;;;10.91;77.69;93267.75;5050897;28;20486;-42
2021/05/21 05:07:04;;;;;;;21.70;11.27;;;;;;;11.02;77.97;93277.69;5044464;28;20415;-43
2021/05/21 05:09:30;;;;;;;12.32;6.72;;;;;;;11.09;78.20;93272.13;5030554;28;20111;-41
2021/05/21 05:11:56;;;;;;;5.25;3.50;;;;;;;10.96;78.21;93272.34;5030541;28;20026;-42
2021/05/21 05:14:21;;;;;;;2.53;2.33;;;;;;;10.85;78.95;93269.97;5030129;28;20128;-41
2021/05/21 05:16:47;;;;;;;1.42;0.90;;;;;;;10.86;78.12;93274.22;5030566;28;20033;-41
2021/05/21 05:19:12;;;;;;;1.85;1.75;;;;;;;10.92;78.56;93277.50;5030386;28;20040;-42
2021/05/21 05:21:40;;;;;;;1.58;1.45;;;;;;;10.97;78.97;93275.84;5030712;28;20061;-42
2021/05/21 05:24:11;;;;;;;3.15;2.67;;;;;;;10.97;79.00;93276.59;5030443;28;20379;-42
2021/05/21 05:26:36;;;;;;;4.50;3.15;;;;;;;10.94;79.12;93282.47;5030242;28;20029;-42
2021/05/21 05:29:02;;;;;;;2.65;2.10;;;;;;;10.93;79.44;93281.75;5030291;28;20021;-40
2021/05/21 05:31:27;;;;;;;1.77;1.55;;;;;;;10.87;79.41;93286.00;5030387;28;20013;-41
2021/05/21 05:33:52;;;;;;;2.85;1.73;;;;;;;10.84;79.63;93279.56;5029963;28;20080;-41
2021/05/21 05:36:18;;;;;;;1.38;1.27;;;;;;;10.84;79.54;93278.81;5030027;28;20029;-40
2021/05/21 05:38:43;;;;;;;2.25;1.67;;;;;;;10.74;78.85;93286.94;5012255;28;20040;-40
2021/05/21 05:41:09;;;;;;;5.65;2.88;;;;;;;10.88;78.62;93295.75;5009885;28;20021;-40
2021/05/21 05:43:34;;;;;;;2.60;2.03;;;;;;;10.97;79.09;93300.69;5010282;28;20033;-41
2021/05/21 05:45:59;;;;;;;3.00;2.05;;;;;;;11.00;78.76;93294.78;5010184;28;20061;-43
2021/05/21 05:48:25;;;;;;;2.55;1.95;;;;;;;11.08;79.10;93305.84;5013453;28;20418;-42
2021/05/21 05:50:51;;;;;;;2.13;1.60;;;;;;;11.18;78.75;93298.44;5049478;28;20502;-44
2021/05/21 05:53:17;;;;;;;2.15;1.80;;;;;;;11.31;78.94;93312.03;5049437;28;20017;-42
2021/05/21 05:55:43;;;;;;;6.60;1.80;;;;;;;11.39;77.98;93312.78;5049679;28;20017;-43
2021/05/21 05:58:09;;;;;;;6.97;3.78;;;;;;;11.52;78.00;93322.88;5049371;28;20627;-42
2021/05/21 06:00:35;;;;;;;4.57;1.73;;;;;;;11.56;77.17;93307.38;5049492;28;20039;-44
2021/05/21 06:03:08;;;;;;;1.85;1.73;;;;;;;11.59;78.07;93327.63;5049334;28;20051;-41
2021/05/21 06:05:34;;;;;;;0.95;0.95;;;;;;;11.63;77.56;93331.47;5049313;28;20085;-42
2021/05/21 06:08:01;;;;;;;1.15;1.08;;;;;;;11.71;77.56;93335.00;5035115;28;20033;-43
2021/05/21 06:10:28;;;;;;;1.20;1.10;;;;;;;11.62;77.28;93340.34;5029358;28;20417;-42
2021/05/21 06:13:07;;;;;;;1.40;1.30;;;;;;;11.55;77.38;93349.41;5029636;28;20037;-42
2021/05/21 06:15:33;;;;;;;;;;;;;;;11.65;76.85;93347.53;5029871;28;20052;-42
2021/05/21 06:17:58;;;;;;;1.38;1.20;;;;;;;11.61;77.14;93342.38;5029571;28;19909;-41
2021/05/21 06:20:25;;;;;;;1.88;1.63;;;;;;;11.51;76.95;93355.31;5029171;28;20021;-41
2021/05/21 06:22:51;;;;;;;2.33;1.67;;;;;;;11.28;77.71;93365.69;5029242;28;20030;-41
2021/05/21 06:25:38;;;;;;;2.53;2.33;;;;;;;11.23;77.31;93364.59;5029383;28;20033;-42
2021/05/21 06:28:03;;;;;;;2.05;1.95;;;;;;;11.12;77.47;93370.50;5029372;28;20040;-42
2021/05/21 06:30:29;;;;;;;3.05;2.33;;;;;;;11.01;78.89;93370.88;5018952;28;20034;-42
2021/05/21 06:32:54;;;;;;;3.58;2.65;;;;;;;10.88;79.59;93371.06;5009534;28;20495;-42
2021/05/21 06:35:22;;;;;;;1.98;1.80;;;;;;;10.79;79.52;93370.84;5009798;28;20518;-41
2021/05/21 06:37:47;;;;;;;3.58;3.25;;;;;;;10.83;79.52;93371.25;5018663;28;20032;-42
2021/05/21 06:40:13;;;;;;;2.45;2.22;;;;;;;10.70;79.90;93374.91;5028600;28;20116;-40
2021/05/21 06:42:38;;;;;;;3.95;2.78;;;;;;;10.75;79.80;93381.53;5011486;28;20025;-41
2021/05/21 06:45:05;;;;;;;8.65;4.05;;;;;;;10.74;80.11;93380.81;5033623;28;20051;-42
2021/05/21 06:47:30;;;;;;;10.88;5.88;;;;;;;10.75;80.71;93384.31;5045388;28;20032;-41
2021/05/21 06:49:56;;;;;;;7.38;5.07;;;;;;;10.67;80.16;93392.59;5031093;28;20402;-44
2021/05/21 06:52:21;;;;;;;3.80;3.08;;;;;;;10.63;79.73;93379.13;5015217;28;20544;-43
2021/05/21 06:54:47;;;;;;;9.18;4.22;;;;;;;10.59;80.49;93381.53;5032764;28;20494;-41
2021/05/21 06:57:12;;;;;;;7.28;3.63;;;;;;;10.66;79.64;93374.53;5032658;28;20117;-42
2021/05/21 06:59:38;;;;;;;6.47;4.47;;;;;;;10.68;79.48;93381.00;5032559;28;20029;-42
2021/05/21 07:02:03;;;;;;;3.20;2.42;;;;;;;10.79;79.08;93379.88;5032574;28;20041;-43
2021/05/21 07:04:29;;;;;;;1.77;1.67;;;;;;;10.66;78.73;93383.56;5032948;28;20029;-42
2021/05/21 07:06:54;;;;;;;4.40;3.08;;;;;;;10.76;78.35;93381.00;5032375;28;20530;-42
2021/05/21 07:09:20;;;;;;;1.85;1.73;;;;;;;10.75;77.21;93381.53;5032781;28;20413;-41
2021/05/21 07:11:45;;;;;;;1.55;1.23;;;;;;;10.74;77.40;93383.59;5032726;28;20045;-42
2021/05/21 07:14:11;;;;;;;3.03;2.58;;;;;;;10.66;77.27;93397.38;5032489;28;20106;-42
2021/05/21 07:16:36;;;;;;;8.20;4.45;;;;;;;10.61;77.28;93401.03;5032226;28;20049;-42
2021/05/21 07:19:03;;;;;;;22.75;3.40;;;;;;;10.52;77.33;93393.31;5032754;28;20017;-43
2021/05/21 07:21:28;;;;;;;6.05;4.28;;;;;;;10.60;77.34;93409.88;5013451;28;20112;-42
2021/05/21 07:23:54;;;;;;;4.50;2.80;;;;;;;10.71;77.86;93408.78;5022595;28;20037;-43
2021/05/21 07:26:19;;;;;;;5.85;2.42;;;;;;;10.75;77.21;93414.69;5031886;28;20044;-41
2021/05/21 07:28:45;;;;;;;4.53;3.33;;;;;;;10.66;77.37;93413.19;5032782;28;20533;-43
2021/05/21 07:31:10;;;;;;;7.00;2.67;;;;;;;10.72;77.25;93424.06;5032745;28;20379;-40
2021/05/21 07:33:36;;;;;;;4.50;1.88;;;;;;;10.83;77.61;93429.25;5032396;28;20449;-41
2021/05/21 07:36:03;;;;;;;2.83;1.92;;;;;;;10.89;76.53;93432.56;5031363;28;20222;-40
2021/05/21 07:38:28;;;;;;;4.18;2.10;;;;;;;10.79;76.73;93432.34;5030216;28;20025;-40
2021/05/21 07:40:54;;;;;;;1.33;0.85;;;;;;;10.85;76.79;93441.19;5031264;28;20532;-40
2021/05/21 07:43:19;;;;;;;1.88;1.73;;;;;;;10.91;76.72;93443.78;5050031;28;20017;-40
2021/05/21 07:45:45;;;;;;;0.95;0.88;;;;;;;10.87;76.73;93443.44;5049952;28;20441;-42
2021/05/21 07:48:10;;;;;;;1.50;1.20;;;;;;;11.01;75.76;93458.53;5048716;28;20025;-40
2021/05/21 07:50:38;;;;;;;2.03;1.70;;;;;;;11.15;75.70;93452.28;5049751;28;20421;-40
2021/05/21 07:53:05;;;;;;;1.92;1.58;;;;;;;11.26;75.00;93456.72;5049978;28;20036;-40
2021/05/21 07:55:31;;;;;;;1.40;1.20;;;;;;;11.29;75.07;93458.34;5050115;28;20025;-40
2021/05/21 07:57:56;;;;;;;0.65;0.65;;;;;;;11.41;73.35;93456.72;5049631;28;20426;-40
2021/05/21 08:00:22;;;;;;;16.63;1.35;;;;;;;11.48;73.73;93466.28;5049116;28;20032;-41
2021/05/21 08:02:47;;;;;;;2.80;0.63;;;;;;;11.62;73.21;93465.53;5049132;28;20033;-41
2021/05/21 08:05:13;;;;;;;1.00;0.90;;;;;;;11.61;73.11;93466.81;5034801;28;20534;-40
2021/05/21 08:07:38;;;;;;;2.80;1.77;;;;;;;11.65;73.71;93469.22;5035197;28;20075;-40
2021/05/21 08:10:06;;;;;;;2.22;1.58;;;;;;;11.65;73.80;93471.97;5049321;28;20033;-40
2021/05/21 08:12:31;;;;;;;0.63;0.60;;;;;;;11.77;72.41;93473.84;5049424;28;20099;-40
2021/05/21 08:14:57;;;;;;;0.85;0.85;;;;;;;11.72;73.01;93479.53;5048709;28;20056;-40
2021/05/21 08:17:23;;;;;;;1.23;0.82;;;;;;;11.72;73.17;93466.44;5049335;28;20033;-40
2021/05/21 08:19:49;;;;;;;0.85;0.85;;;;;;;11.88;72.34;93475.47;5049460;28;20058;-41
2021/05/21 08:22:14;;;;;;;0.75;0.70;;;;;;;11.97;72.36;93477.66;5049187;28;20033;-42
2021/05/21 08:24:39;;;;;;;1.33;1.25;;;;;;;12.08;71.80;93488.34;5048932;28;20102;-42
2021/05/21 08:27:05;;;;;;;0.82;0.80;;;;;;;12.11;71.43;93489.97;5037694;28;20037;-41
2021/05/21 08:29:32;;;;;;;0.38;0.38;;;;;;;12.20;70.79;93500.47;5029080;28;20029;-41
2021/05/21 08:32:00;;;;;;;0.50;0.50;;;;;;;12.06;69.48;93497.19;5041145;28;20104;-43
2021/05/21 08:34:25;;;;;;;3.17;1.38;;;;;;;12.01;70.84;93495.38;5048809;28;20029;-41
2021/05/21 08:36:50;;;;;;;0.45;0.45;;;;;;;11.97;70.96;93499.81;5047454;28;20025;-42
2021/05/21 08:39:16;;;;;;;5.00;4.57;;;;;;;11.99;70.66;93500.72;5047325;28;20098;-42
2021/05/21 08:41:44;;;;;;;17.60;10.18;;;;;;;12.07;70.35;93509.72;5048466;28;20513;-43
2021/05/21 08:44:10;;;;;;;5.75;3.35;;;;;;;12.13;70.89;93512.28;5048444;28;20112;-41
2021/05/21 08:46:35;;;;;;;2.30;1.75;;;;;;;12.10;70.48;93503.09;5048986;28;20108;-41
2021/05/21 08:49:02;;;;;;;3.90;2.05;;;;;;;12.49;70.63;93521.06;5047736;28;20108;-42
2021/05/21 08:51:29;;;;;;;3.40;1.88;;;;;;;12.66;70.23;93523.19;5048772;28;20027;-40
2021/05/21 08:53:56;;;;;;;1.63;1.33;;;;;;;12.86;69.61;93520.13;5048273;28;20021;-40
2021/05/21 08:56:21;;;;;;;1.65;1.15;;;;;;;12.98;69.75;93498.28;5048658;28;20028;-41
2021/05/21 08:58:47;;;;;;;1.15;1.02;;;;;;;13.28;68.62;93519.56;5039786;28;20509;-40
2021/05/21 09:01:12;;;;;;;1.70;1.60;;;;;;;13.56;67.28;93513.63;5027186;28;20499;-41
2021/05/21 09:03:38;;;;;;;0.50;0.50;;;;;;;13.82;66.14;93515.81;5027400;28;20030;-42
2021/05/21 09:06:16;;;;;;;2.75;1.77;;;;;;;14.10;65.29;93522.94;5028039;28;20052;-40
2021/05/21 09:08:58;;;;;;;1.13;1.05;;;;;;;14.71;63.89;93515.47;5042902;28;20032;-40
2021/05/21 09:11:31;;;;;;;0.60;0.57;;;;;;;15.25;60.82;93507.13;5048383;28;20020;-40
2021/05/21 09:13:58;;;;;;;0.90;0.88;;;;;;;16.29;61.90;93522.75;5048068;28;20044;-41
2021/05/21 09:16:25;;;;;;;0.43;0.43;;;;;;;17.80;56.30;93516.88;5047962;28;20437;-41
2021/05/21 09:19:03;;;;;;;0.45;0.45;;;;;;;18.27;53.37;93523.53;5048140;28;20033;-40
2021/05/21 09:22:06;;;;;;;0.47;0.47;;;;;;;17.82;53.99;93530.97;5048072;28;20108;-41
2021/05/21 09:24:35;;;;;;;0.30;0.30;;;;;;;17.44;55.21;93526.22;5047969;28;20110;-41
2021/05/21 09:27:03;;;;;;;3.25;1.52;;;;;;;16.75;54.93;93520.59;5047868;28;20032;-40
2021/05/21 09:29:36;;;;;;;1.65;1.02;;;;;;;16.04;56.53;93528.59;5047538;28;20043;-41
2021/05/21 09:32:17;;;;;;;2.38;1.00;;;;;;;16.22;58.47;93529.22;5047574;28;20024;-41
2021/05/21 09:34:47;;;;;;;0.95;0.50;;;;;;;16.39;57.88;93529.81;5035392;28;20032;-41
2021/05/21 09:37:22;;;;;;;0.55;0.55;;;;;;;16.44;56.44;93536.41;5028226;28;20021;-42
2021/05/21 09:40:05;;;;;;;1.52;1.00;;;;;;;16.51;57.72;93525.16;5027767;28;20026;-44
2021/05/21 09:42:45;;;;;;;1.38;1.00;;;;;;;16.70;57.07;93524.41;5027551;28;20021;-40
2021/05/21 09:45:14;;;;;;;2.42;1.73;;;;;;;16.78;55.98;93530.59;5027273;28;20021;-42
2021/05/21 09:47:56;;;;;;;5.72;2.28;;;;;;;16.72;54.58;93530.13;5025446;28;20025;-40
2021/05/21 09:50:42;;;;;;;10.95;5.43;;;;;;;16.37;56.41;93534.50;5026467;28;20091;-40
2021/05/21 09:53:17;;;;;;;15.10;5.20;;;;;;;16.35;57.45;93539.94;5027293;28;20037;-40
2021/05/21 09:55:53;;;;;;;7.25;3.50;;;;;;;15.96;57.56;93547.44;5027318;28;20029;-41
2021/05/21 09:58:40;;;;;;;10.50;4.65;;;;;;;15.62;59.63;93544.84;5027532;28;20048;-40
2021/05/21 10:01:22;;;;;;;1.45;1.17;;;;;;;15.54;57.09;93539.41;5027398;28;20029;-40
2021/05/21 10:03:48;;;;;;;1.00;0.95;;;;;;;15.47;56.25;93545.06;5027444;28;20032;-41
2021/05/21 10:06:14;;;;;;;5.13;2.90;;;;;;;15.35;58.17;93549.66;5024275;28;20139;-40
2021/05/21 10:08:41;;;;;;;2.38;1.80;;;;;;;15.45;56.53;93542.13;5026887;28;20033;-39
2021/05/21 10:11:07;;;;;;;2.38;1.77;;;;;;;15.05;58.68;93551.53;5026788;28;20118;-39
2021/05/21 10:13:33;;;;;;;4.88;2.17;;;;;;;15.36;59.51;93551.13;5026908;28;20056;-40
2021/05/21 10:15:59;;;;;;;2.13;1.48;;;;;;;15.09;60.36;93554.63;5026764;28;20091;-40
2021/05/21 10:18:26;;;;;;;4.13;1.98;;;;;;;14.94;60.35;93557.59;5027544;28;20061;-39
2021/05/21 10:20:51;;;;;;;3.58;1.70;;;;;;;14.57;60.10;93567.13;5011207;28;20550;-40
2021/05/21 10:23:22;;;;;;;3.75;2.05;;;;;;;14.52;61.35;93568.09;5029330;28;20092;-39
2021/05/21 10:25:51;;;;;;;1.40;1.25;;;;;;;14.15;62.21;93567.16;5028832;28;20022;-39
2021/05/21 10:28:18;;;;;;;2.33;1.67;;;;;;;14.05;62.79;93568.34;5011411;28;20104;-40
2021/05/21 10:30:43;;;;;;;5.28;2.25;;;;;;;13.73;63.91;93574.69;5039455;28;20029;-38
2021/05/21 10:33:32;;;;;;;3.95;1.80;;;;;;;13.73;63.48;93582.31;5049176;28;20399;-39
2021/05/21 10:36:19;;;;;;;3.30;2.40;;;;;;;13.62;64.65;93587.00;5020595;28;20595;-39
2021/05/21 10:39:16;;;;;;;1.98;1.75;;;;;;;13.67;64.67;93583.25;5027092;28;20104;-39
2021/05/21 10:41:56;;;;;;;9.43;3.28;;;;;;;13.77;64.61;93586.16;5026900;28;20021;-39
2021/05/21 10:44:22;;;;;;;7.57;2.78;;;;;;;13.82;63.99;93590.03;5026675;28;20018;-39
2021/05/21 10:46:49;;;;;;;4.50;2.45;;;;;;;13.71;64.85;93593.25;5028465;28;20074;-39
2021/05/21 10:49:24;;;;;;;1.65;1.42;;;;;;;13.87;63.94;93600.13;5026005;28;20029;-38
2021/05/21 10:51:56;;;;;;;1.75;1.63;;;;;;;13.98;64.45;93603.22;5028165;28;20558;-39
2021/05/21 10:54:26;;;;;;;4.95;2.95;;;;;;;14.14;64.28;93601.03;5010798;28;20500;-39
2021/05/21 10:56:58;;;;;;;4.82;2.30;;;;;;;14.34;63.71;93600.69;5028786;28;20104;-40
2021/05/21 10:59:51;;;;;;;7.25;1.67;;;;;;;14.61;62.98;93608.41;5028460;28;20037;-43
2021/05/21 11:02:17;;;;;;;1.30;1.20;;;;;;;14.88;61.22;93598.09;5025984;28;20470;-42
2021/05/21 11:04:42;;;;;;;1.70;1.42;;;;;;;15.20;60.90;93589.56;5010980;28;20018;-45
2021/05/21 11:07:08;;;;;;;3.90;2.08;;;;;;;15.61;59.76;93583.09;5019653;28;20447;-42
2021/05/21 11:09:45;;;;;;;7.00;2.88;;;;;;;16.08;58.09;93575.50;5027993;28;20025;-43
2021/05/21 11:12:15;;;;;;;2.20;0.80;;;;;;;16.50;57.70;93573.84;5028255;28;20021;-42
2021/05/21 11:14:42;;;;;;;3.33;2.17;;;;;;;16.98;57.29;93576.66;5028324;28;20073;-43
2021/05/21 11:17:07;;;;;;;1.25;0.90;;;;;;;17.19;55.45;93585.19;5028553;28;20029;-44
2021/05/21 11:19:33;;;;;;;0.90;0.90;;;;;;;17.47;53.72;93582.91;5028826;28;20559;-45
2021/05/21 11:22:17;;;;;;;0.30;0.30;;;;;;;17.57;53.99;93589.22;5028870;28;20022;-44
2021/05/21 11:24:45;;;;;;;0.47;0.38;;;;;;;17.80;50.35;93590.19;5029167;28;20103;-42
2021/05/21 11:27:11;;;;;;;3.08;1.70;;;;;;;18.15;50.67;93593.28;5040487;28;20040;-42
2021/05/21 11:29:50;;;;;;;0.70;0.60;;;;;;;17.94;49.60;93585.59;5048819;28;20021;-45
2021/05/21 11:32:18;;;;;;;2.75;1.65;;;;;;;17.81;48.96;93590.94;5048803;28;20036;-46
2021/05/21 11:34:45;;;;;;;1.88;1.02;;;;;;;17.50;51.04;93588.06;5048494;28;20028;-44